createdAt,value
2022-08-20T00:02:16.922Z,21.20
2022-08-20T00:04:44.553Z,21.10
2022-08-20T00:07:12.325Z,21.15
2022-08-20T00:09:41.460Z,21.08
2022-08-20T00:12:09.824Z,21.13
2022-08-20T00:14:37.950Z,21.10
2022-08-20T00:17:06.726Z,21.12
2022-08-20T00:19:35.644Z,21.06
2022-08-20T00:22:03.398Z,21.16
2022-08-20T00:24:31.271Z,21.14
2022-08-20T00:26:58.679Z,21.01
2022-08-20T00:29:26.097Z,21.04
2022-08-20T00:31:53.478Z,20.98
2022-08-20T00:34:21.024Z,20.99
2022-08-20T00:36:49.795Z,21.00
2022-08-20T00:39:17.211Z,21.09
2022-08-20T00:41:44.607Z,21.07
2022-08-20T00:44:14.550Z,20.97
2022-08-20T00:46:43.063Z,21.00
2022-08-20T00:49:15.558Z,21.00
2022-08-20T00:51:45.692Z,20.98
2022-08-20T00:54:18.718Z,21.04
2022-08-20T00:56:50.466Z,21.09
2022-08-20T00:59:23.701Z,21.00
2022-08-20T01:01:55.220Z,21.03
2022-08-20T01:04:26.151Z,21.01
2022-08-20T01:06:53.600Z,21.11
2022-08-20T01:09:50.329Z,20.96
2022-08-20T01:12:10.695Z,21.02
2022-08-20T01:14:43.964Z,20.79
2022-08-20T01:17:15.915Z,20.73
2022-08-20T01:19:48.004Z,20.64
2022-08-20T01:22:46.740Z,20.69
2022-08-20T01:25:23.941Z,20.50
2022-08-20T01:27:55.474Z,20.56
2022-08-20T01:30:27.408Z,20.53
2022-08-20T01:32:54.988Z,20.54
2022-08-20T01:35:25.738Z,20.58
2022-08-20T01:37:53.177Z,20.50
2022-08-20T01:40:38.338Z,20.55
2022-08-20T01:43:09.113Z,20.66
2022-08-20T01:45:40.209Z,20.66
2022-08-20T01:48:08.675Z,20.55
2022-08-20T01:50:39.855Z,20.45
2022-08-20T01:53:19.225Z,20.39
2022-08-20T01:55:46.741Z,20.28
2022-08-20T01:58:15.721Z,20.14
2022-08-20T02:00:44.062Z,20.07
2022-08-20T02:03:11.715Z,20.14
2022-08-20T02:05:39.138Z,20.08
2022-08-20T02:08:06.807Z,20.08
2022-08-20T02:10:36.373Z,20.02
2022-08-20T02:13:07.471Z,20.12
2022-08-20T02:15:37.602Z,20.10
2022-08-20T02:18:13.051Z,20.12
2022-08-20T02:20:43.327Z,20.10
2022-08-20T02:23:11.818Z,20.04
2022-08-20T02:25:41.494Z,20.11
2022-08-20T02:28:13.947Z,20.06
2022-08-20T02:30:46.899Z,20.11
2022-08-20T02:33:17.131Z,19.99
2022-08-20T02:35:48.427Z,19.98
2022-08-20T02:38:16.599Z,19.89
2022-08-20T02:40:45.300Z,20.05
2022-08-20T02:43:14.397Z,19.97
2022-08-20T02:45:44.603Z,20.08
2022-08-20T02:48:20.577Z,19.93
2022-08-20T02:50:50.701Z,19.95
2022-08-20T02:53:18.283Z,19.99
2022-08-20T02:55:45.708Z,19.73
2022-08-20T02:58:13.167Z,19.83
2022-08-20T03:00:41.171Z,19.82
2022-08-20T03:03:11.543Z,19.78
2022-08-20T03:05:40.815Z,19.77
2022-08-20T03:08:10.297Z,19.77
2022-08-20T03:10:39.340Z,19.74
2022-08-20T03:13:12.130Z,19.89
2022-08-20T03:15:41.734Z,19.70
2022-08-20T03:18:10.651Z,19.70
2022-08-20T03:20:38.579Z,19.65
2022-08-20T03:23:07.112Z,19.56
2022-08-20T03:25:34.658Z,19.59
2022-08-20T03:28:02.620Z,19.62
2022-08-20T03:30:31.161Z,19.65
2022-08-20T03:32:58.824Z,19.73
2022-08-20T03:35:29.272Z,19.84
2022-08-20T03:37:57.822Z,19.77
2022-08-20T03:40:29.010Z,19.78
2022-08-20T03:42:56.725Z,19.80
2022-08-20T03:45:25.469Z,19.63
2022-08-20T03:47:54.966Z,19.58
2022-08-20T03:50:26.636Z,19.64
2022-08-20T03:52:56.316Z,19.65
2022-08-20T03:55:25.192Z,19.66
2022-08-20T03:57:56.104Z,19.66
2022-08-20T04:00:27.056Z,19.64
2022-08-20T04:02:55.246Z,19.72
2022-08-20T04:05:25.498Z,19.70
2022-08-20T04:08:02.922Z,19.52
2022-08-20T04:10:31.386Z,19.42
2022-08-20T04:12:58.871Z,19.45
2022-08-20T04:15:27.210Z,19.49
2022-08-20T04:17:55.143Z,19.56
2022-08-20T04:20:25.933Z,19.55
2022-08-20T04:22:59.369Z,19.41
2022-08-20T04:25:29.525Z,19.44
2022-08-20T04:27:57.814Z,19.45
2022-08-20T04:30:26.099Z,19.47
2022-08-20T04:32:54.320Z,19.57
2022-08-20T04:35:24.315Z,19.53
2022-08-20T04:37:58.839Z,19.46
2022-08-20T04:40:46.550Z,19.44
2022-08-20T04:43:14.377Z,19.47
2022-08-20T04:45:42.313Z,19.62
2022-08-20T04:48:14.716Z,19.53
2022-08-20T04:50:44.522Z,19.58
2022-08-20T04:53:13.534Z,19.57
2022-08-20T04:55:43.814Z,19.52
2022-08-20T04:58:18.092Z,19.45
2022-08-20T05:00:46.990Z,19.31
2022-08-20T05:03:14.609Z,19.37
2022-08-20T05:05:42.185Z,19.37
2022-08-20T05:08:11.637Z,19.31
2022-08-20T05:10:48.754Z,19.28
2022-08-20T05:13:17.049Z,19.26
2022-08-20T05:15:45.556Z,19.24
2022-08-20T05:18:14.192Z,19.25
2022-08-20T05:20:43.340Z,19.28
2022-08-20T05:23:13.498Z,19.12
2022-08-20T05:25:42.761Z,19.19
2022-08-20T05:28:17.723Z,19.09
2022-08-20T05:30:47.689Z,19.03
2022-08-20T05:33:19.832Z,19.10
2022-08-20T05:35:49.288Z,19.01
2022-08-20T05:38:19.380Z,19.03
2022-08-20T05:40:46.878Z,18.96
2022-08-20T05:43:16.053Z,19.11
2022-08-20T05:45:44.446Z,19.24
2022-08-20T05:48:14.366Z,19.17
2022-08-20T05:50:43.683Z,19.16
2022-08-20T05:53:11.316Z,19.14
2022-08-20T05:55:40.257Z,19.15
2022-08-20T05:58:15.140Z,19.17
2022-08-20T06:00:43.854Z,19.17
2022-08-20T06:03:28.725Z,19.19
2022-08-20T06:05:56.479Z,19.31
2022-08-20T06:08:24.139Z,19.32
2022-08-20T06:10:51.924Z,19.18
2022-08-20T06:13:19.321Z,19.24
2022-08-20T06:15:48.136Z,19.30
2022-08-20T06:18:28.028Z,19.39
2022-08-20T06:20:56.177Z,19.53
2022-08-20T06:23:25.202Z,19.73
2022-08-20T06:25:53.429Z,19.68
2022-08-20T06:28:21.012Z,19.64
2022-08-20T06:30:49.753Z,19.73
2022-08-20T06:33:17.158Z,19.61
2022-08-20T06:35:44.672Z,19.60
2022-08-20T06:38:14.650Z,19.61
2022-08-20T06:40:42.136Z,19.51
2022-08-20T06:43:09.860Z,19.59
2022-08-20T06:45:38.863Z,19.64
2022-08-20T06:48:11.343Z,19.42
2022-08-20T06:50:47.731Z,19.47
2022-08-20T06:53:18.680Z,19.44
2022-08-20T06:55:49.605Z,19.47
2022-08-20T06:58:35.654Z,19.27
2022-08-20T07:01:10.229Z,19.27
2022-08-20T07:03:40.588Z,19.23
2022-08-20T07:06:22.785Z,19.26
2022-08-20T07:08:50.146Z,19.16
2022-08-20T07:11:17.658Z,19.31
2022-08-20T07:13:45.333Z,19.40
2022-08-20T07:16:12.826Z,19.44
2022-08-20T07:18:41.610Z,19.59
2022-08-20T07:21:12.868Z,19.67
2022-08-20T07:23:41.638Z,19.50
2022-08-20T07:26:09.063Z,19.42
2022-08-20T07:28:36.482Z,19.44
2022-08-20T07:31:21.480Z,19.49
2022-08-20T07:33:50.466Z,19.41
2022-08-20T07:36:18.486Z,19.42
2022-08-20T07:38:47.656Z,19.38
2022-08-20T07:41:15.564Z,19.28
2022-08-20T07:43:45.116Z,19.19
2022-08-20T07:46:13.499Z,19.26
2022-08-20T07:48:46.139Z,19.17
2022-08-20T07:51:17.803Z,19.25
2022-08-20T07:53:46.663Z,19.19
2022-08-20T07:56:16.362Z,19.33
2022-08-20T07:58:49.898Z,19.45
2022-08-20T08:01:18.493Z,19.46
2022-08-20T08:03:50.328Z,19.55
2022-08-20T08:06:30.014Z,19.61
2022-08-20T08:09:00.155Z,19.73
2022-08-20T08:11:27.609Z,19.74
2022-08-20T08:13:55.208Z,19.85
2022-08-20T08:16:22.782Z,19.71
2022-08-20T08:18:56.499Z,19.81
2022-08-20T08:21:27.120Z,20.02
2022-08-20T08:23:54.920Z,20.05
2022-08-20T08:26:22.349Z,20.07
2022-08-20T08:28:49.773Z,19.97
2022-08-20T08:31:17.276Z,20.02
2022-08-20T08:33:45.370Z,20.05
2022-08-20T08:36:15.100Z,20.18
2022-08-20T08:38:46.683Z,20.30
2022-08-20T08:41:19.364Z,20.33
2022-08-20T08:43:50.020Z,20.17
2022-08-20T08:46:21.521Z,20.30
2022-08-20T08:48:53.369Z,20.35
2022-08-20T08:51:27.752Z,20.32
2022-08-20T08:53:57.957Z,20.39
2022-08-20T08:56:29.656Z,20.23
2022-08-20T08:59:01.331Z,20.35
2022-08-20T09:01:54.187Z,20.36
2022-08-20T09:04:21.941Z,20.33
2022-08-20T09:06:53.423Z,20.44
2022-08-20T09:09:25.236Z,20.48
2022-08-20T09:11:55.926Z,20.37
2022-08-20T09:14:25.301Z,20.54
2022-08-20T09:16:53.577Z,20.45
2022-08-20T09:19:21.239Z,20.50
2022-08-20T09:21:48.657Z,20.19
2022-08-20T09:24:16.281Z,20.28
2022-08-20T09:26:45.056Z,20.00
2022-08-20T09:29:12.773Z,20.01
2022-08-20T09:31:40.269Z,20.09
2022-08-20T09:34:08.378Z,20.20
2022-08-20T09:36:36.136Z,20.33
2022-08-20T09:39:03.603Z,20.39
2022-08-20T09:41:33.873Z,20.46
2022-08-20T09:44:03.672Z,20.32
2022-08-20T09:46:31.058Z,20.40
2022-08-20T09:48:58.475Z,20.33
2022-08-20T09:51:25.960Z,20.41
2022-08-20T09:53:53.430Z,20.27
2022-08-20T09:56:20.872Z,20.26
2022-08-20T09:58:52.775Z,20.17
2022-08-20T10:01:23.260Z,20.21
2022-08-20T10:03:51.456Z,20.21
2022-08-20T10:06:20.705Z,20.26
2022-08-20T10:11:41.276Z,20.22
2022-08-20T10:14:09.848Z,20.36
2022-08-20T10:16:38.634Z,20.23
2022-08-20T10:19:06.775Z,20.25
2022-08-20T10:21:38.660Z,20.14
2022-08-20T10:24:06.575Z,20.24
2022-08-20T10:26:34.011Z,20.29
2022-08-20T10:29:01.416Z,20.27
2022-08-20T10:31:29.137Z,20.27
2022-08-20T10:33:58.020Z,20.34
2022-08-20T10:36:25.414Z,20.23
2022-08-20T10:38:52.863Z,20.32
2022-08-20T10:41:21.329Z,20.34
2022-08-20T10:43:48.908Z,20.37
2022-08-20T10:46:16.311Z,20.33
2022-08-20T10:48:44.302Z,20.49
2022-08-20T10:51:13.095Z,20.50
2022-08-20T10:53:40.554Z,20.43
2022-08-20T10:56:08.354Z,20.47
2022-08-20T10:58:39.490Z,20.55
2022-08-20T11:01:07.746Z,20.56
2022-08-20T11:03:35.679Z,20.52
2022-08-20T11:06:03.318Z,20.46
2022-08-20T11:08:34.502Z,20.53
2022-08-20T11:11:03.845Z,20.46
2022-08-20T11:13:31.238Z,20.50
2022-08-20T11:15:58.628Z,20.55
2022-08-20T11:18:26.027Z,20.42
2022-08-20T11:20:53.556Z,20.45
2022-08-20T11:23:20.931Z,20.47
2022-08-20T11:25:49.950Z,20.32
2022-08-20T11:28:17.432Z,20.42
2022-08-20T11:30:58.916Z,20.55
2022-08-20T11:33:26.294Z,20.44
2022-08-20T11:35:53.866Z,20.45
2022-08-20T11:38:21.275Z,20.32
2022-08-20T11:40:50.010Z,20.29
2022-08-20T11:43:18.347Z,20.46
2022-08-20T11:45:48.414Z,20.38
2022-08-20T11:48:16.795Z,20.33
2022-08-20T11:50:44.229Z,20.35
2022-08-20T11:53:11.774Z,20.32
2022-08-20T11:55:39.922Z,20.32
2022-08-20T11:58:08.747Z,20.38
2022-08-20T12:00:36.935Z,20.38
2022-08-20T12:03:09.105Z,20.24
2022-08-20T12:05:37.596Z,20.39
2022-08-20T12:08:05.379Z,20.38
2022-08-20T12:10:33.558Z,20.26
2022-08-20T12:13:02.592Z,20.33
2022-08-20T12:15:33.759Z,20.43
2022-08-20T12:18:01.333Z,20.25
2022-08-20T12:20:28.806Z,20.33
2022-08-20T12:22:56.571Z,20.27
2022-08-20T12:25:24.009Z,20.30
2022-08-20T12:27:51.487Z,20.32
2022-08-20T12:30:20.923Z,20.40
2022-08-20T12:32:49.686Z,20.28
2022-08-20T12:35:18.462Z,20.24
2022-08-20T12:37:47.298Z,20.30
2022-08-20T12:40:18.222Z,20.27
2022-08-20T12:42:58.179Z,20.22
2022-08-20T12:45:25.803Z,20.24
2022-08-20T12:48:02.188Z,20.28
2022-08-20T12:50:31.786Z,20.43
2022-08-20T12:52:59.944Z,20.41
2022-08-20T12:55:27.732Z,20.38
2022-08-20T12:57:59.204Z,20.27
2022-08-20T13:00:29.413Z,20.31
2022-08-20T13:03:00.497Z,20.33
2022-08-20T13:05:28.936Z,20.39
2022-08-20T13:07:57.302Z,20.36
2022-08-20T13:10:27.583Z,20.39
2022-08-20T13:12:55.375Z,20.48
2022-08-20T13:15:23.461Z,20.46
2022-08-20T13:17:54.784Z,20.34
2022-08-20T13:20:25.600Z,20.51
2022-08-20T13:22:59.346Z,20.63
2022-08-20T13:25:26.895Z,20.59
2022-08-20T13:27:58.177Z,20.74
2022-08-20T13:30:25.917Z,20.81
2022-08-20T13:32:53.399Z,20.88
2022-08-20T13:35:21.645Z,20.85
2022-08-20T13:37:51.240Z,21.05
2022-08-20T13:40:19.245Z,21.13
2022-08-20T13:42:46.807Z,21.18
2022-08-20T13:45:14.716Z,20.96
2022-08-20T13:47:42.975Z,20.96
2022-08-20T13:50:12.822Z,21.03
2022-08-20T13:52:42.766Z,21.21
2022-08-20T13:55:17.198Z,21.22
2022-08-20T13:57:45.343Z,21.28
2022-08-20T14:00:16.810Z,21.25
2022-08-20T14:02:45.286Z,21.15
2022-08-20T14:05:18.375Z,21.03
2022-08-20T14:07:48.042Z,20.90
2022-08-20T14:10:20.278Z,20.97
2022-08-20T14:12:48.308Z,21.02
2022-08-20T14:15:16.024Z,20.98
2022-08-20T14:17:49.845Z,20.91
2022-08-20T14:20:20.386Z,20.74
2022-08-20T14:22:47.957Z,20.76
2022-08-20T14:25:20.477Z,20.43
2022-08-20T14:27:47.995Z,20.37
2022-08-20T14:30:19.057Z,20.43
2022-08-20T14:32:47.262Z,20.36
2022-08-20T14:35:14.882Z,20.28
2022-08-20T14:37:44.970Z,20.08
2022-08-20T14:40:17.285Z,20.15
2022-08-20T14:42:51.346Z,20.02
2022-08-20T14:45:20.283Z,20.07
2022-08-20T14:47:53.522Z,19.97
2022-08-20T14:50:23.508Z,19.70
2022-08-20T14:52:50.898Z,19.48
2022-08-20T14:55:20.644Z,19.32
2022-08-20T14:57:49.929Z,19.17
2022-08-20T15:00:20.672Z,19.30
2022-08-20T15:02:48.592Z,19.38
2022-08-20T15:05:16.812Z,19.37
2022-08-20T15:07:48.421Z,19.42
2022-08-20T15:10:18.576Z,19.47
2022-08-20T15:12:46.214Z,19.54
2022-08-20T15:15:16.473Z,19.37
2022-08-20T15:17:46.331Z,19.21
2022-08-20T15:20:20.399Z,19.26
2022-08-20T15:22:49.654Z,19.34
2022-08-20T15:25:21.418Z,19.38
2022-08-20T15:27:49.772Z,19.47
2022-08-20T15:30:21.648Z,19.45
2022-08-20T15:32:54.657Z,19.52
2022-08-20T15:35:26.802Z,19.39
2022-08-20T15:37:57.434Z,19.57
2022-08-20T15:40:28.550Z,19.66
2022-08-20T15:42:56.667Z,19.69
2022-08-20T15:45:25.646Z,19.79
2022-08-20T15:47:56.018Z,19.85
2022-08-20T15:50:35.667Z,19.91
2022-08-20T15:53:09.574Z,19.97
2022-08-20T15:55:39.568Z,19.99
2022-08-20T15:58:13.345Z,20.10
2022-08-20T16:00:52.451Z,20.16
2022-08-20T16:03:46.195Z,20.11
2022-08-20T16:06:18.323Z,20.07
2022-08-20T16:09:04.358Z,20.04
2022-08-20T16:11:46.213Z,19.97
2022-08-20T16:14:16.960Z,19.99
2022-08-20T16:16:49.652Z,20.03
2022-08-20T16:19:22.712Z,20.00
2022-08-20T16:21:51.382Z,19.98
2022-08-20T16:24:19.825Z,20.01
2022-08-20T16:27:02.544Z,20.05
2022-08-20T16:29:45.486Z,20.08
2022-08-20T16:32:24.093Z,20.17
2022-08-20T16:34:56.754Z,20.17
2022-08-20T16:37:31.123Z,20.10
2022-08-20T16:40:10.074Z,20.04
2022-08-20T16:42:40.040Z,20.12
2022-08-20T16:45:12.625Z,20.09
2022-08-20T16:47:41.655Z,20.16
2022-08-20T16:50:12.055Z,20.24
2022-08-20T16:52:43.150Z,20.18
2022-08-20T16:55:10.881Z,20.08
2022-08-20T16:57:38.648Z,20.04
2022-08-20T17:00:12.950Z,20.11
2022-08-20T17:02:53.182Z,20.02
2022-08-20T17:05:21.237Z,20.04
2022-08-20T17:07:52.962Z,20.09
2022-08-20T17:10:24.675Z,19.89
2022-08-20T17:12:54.160Z,19.89
2022-08-20T17:15:25.497Z,20.03
2022-08-20T17:17:55.832Z,20.05
2022-08-20T17:20:25.864Z,19.93
2022-08-20T17:23:11.988Z,19.88
2022-08-20T17:25:39.452Z,19.81
2022-08-20T17:28:14.879Z,19.73
2022-08-20T17:30:42.422Z,19.90
2022-08-20T17:33:28.652Z,19.67
2022-08-20T17:36:00.355Z,19.67
2022-08-20T17:38:33.299Z,19.65
2022-08-20T17:41:02.572Z,19.56
2022-08-20T17:43:32.848Z,19.55
2022-08-20T17:46:04.418Z,19.59
2022-08-20T17:48:38.045Z,19.62
2022-08-20T17:51:14.489Z,19.57
2022-08-20T17:53:45.056Z,19.61
2022-08-20T17:56:19.356Z,19.54
2022-08-20T17:58:55.048Z,19.52
2022-08-20T18:01:25.812Z,19.48
2022-08-20T18:03:55.337Z,19.47
2022-08-20T18:06:31.261Z,19.48
2022-08-20T18:09:05.459Z,19.41
2022-08-20T18:11:37.818Z,19.38
2022-08-20T18:14:31.121Z,19.41
2022-08-20T18:17:16.113Z,19.39
2022-08-20T18:20:13.397Z,19.38
2022-08-20T18:22:49.040Z,19.44
2022-08-20T18:25:29.298Z,19.47
2022-08-20T18:28:02.761Z,19.36
2022-08-20T18:30:30.235Z,19.38
2022-08-20T18:33:08.417Z,19.46
2022-08-20T18:35:45.929Z,19.48
2022-08-20T18:38:28.308Z,19.53
2022-08-20T18:41:07.270Z,19.40
2022-08-20T18:43:35.638Z,19.36
2022-08-20T18:46:13.217Z,19.34
2022-08-20T18:48:52.276Z,19.31
2022-08-20T18:51:26.564Z,19.26
2022-08-20T18:53:54.004Z,19.20
2022-08-20T18:56:36.323Z,19.22
2022-08-20T18:59:10.021Z,19.13
2022-08-20T19:01:39.454Z,19.12
2022-08-20T19:04:18.628Z,19.11
2022-08-20T19:06:51.670Z,19.27
2022-08-20T19:09:42.875Z,19.20
2022-08-20T19:12:21.976Z,19.13
2022-08-20T19:15:00.657Z,19.13
2022-08-20T19:17:46.041Z,19.11
2022-08-20T19:20:18.964Z,19.13
2022-08-20T19:22:49.993Z,19.10
2022-08-20T19:25:26.866Z,19.06
2022-08-20T19:27:56.574Z,19.09
2022-08-20T19:30:34.443Z,19.07
2022-08-20T19:33:03.072Z,19.04
2022-08-20T19:35:30.620Z,19.02
2022-08-20T19:38:02.213Z,18.89
2022-08-20T19:40:32.999Z,18.83
2022-08-20T19:43:13.011Z,18.89
2022-08-20T19:45:42.585Z,18.91
2022-08-20T19:48:37.628Z,18.94
2022-08-20T19:51:12.737Z,18.98
2022-08-20T19:53:47.038Z,18.92
2022-08-20T19:56:17.706Z,18.95
2022-08-20T19:58:45.773Z,18.97
2022-08-20T20:01:18.664Z,19.02
2022-08-20T20:03:57.120Z,19.03
2022-08-20T20:06:26.058Z,19.06
2022-08-20T20:08:58.718Z,19.14
2022-08-20T20:11:30.876Z,19.12
2022-08-20T20:14:03.721Z,19.09
2022-08-20T20:16:32.929Z,19.06
2022-08-20T20:19:24.776Z,18.94
2022-08-20T20:21:51.079Z,18.89
2022-08-20T20:24:26.339Z,18.80
2022-08-20T20:26:54.092Z,18.82
2022-08-20T20:29:27.543Z,18.83
2022-08-20T20:31:57.213Z,18.84
2022-08-20T20:34:27.439Z,18.83
2022-08-20T20:37:04.853Z,18.88
2022-08-20T20:39:37.516Z,18.89
2022-08-20T20:42:07.015Z,18.91
2022-08-20T20:44:37.491Z,18.91
2022-08-20T20:47:08.464Z,18.81
2022-08-20T20:49:49.273Z,18.83
2022-08-20T20:52:22.497Z,18.88
2022-08-20T20:54:52.933Z,18.76
2022-08-20T20:57:37.957Z,18.75
2022-08-20T21:00:11.084Z,18.79
2022-08-20T21:02:38.488Z,18.78
2022-08-20T21:05:07.056Z,18.87
2022-08-20T21:07:34.483Z,18.82
2022-08-20T21:10:03.212Z,18.81
2022-08-20T21:12:30.620Z,18.87
2022-08-20T21:14:58.298Z,18.87
2022-08-20T21:17:25.716Z,18.83
2022-08-20T21:19:53.483Z,18.79
2022-08-20T21:22:21.862Z,18.81
2022-08-20T21:24:51.308Z,19.04
2022-08-20T21:27:24.521Z,19.05
2022-08-20T21:29:52.710Z,19.08
2022-08-20T21:32:21.149Z,19.01
2022-08-20T21:34:49.383Z,18.95
2022-08-20T21:37:17.762Z,18.94
2022-08-20T21:39:45.786Z,18.93
2022-08-20T21:42:28.973Z,18.93
2022-08-20T21:44:58.347Z,18.97
2022-08-20T21:47:26.558Z,18.94
2022-08-20T21:49:54.653Z,18.95
2022-08-20T21:52:22.512Z,19.03
2022-08-20T21:54:49.961Z,19.00
2022-08-20T21:57:20.897Z,19.00
2022-08-20T21:59:49.558Z,19.06
2022-08-20T22:02:19.340Z,19.04
2022-08-20T22:04:46.777Z,19.09
2022-08-20T22:07:14.692Z,19.10
2022-08-20T22:09:42.543Z,19.12
2022-08-20T22:12:23.046Z,19.07
2022-08-20T22:14:50.670Z,19.05
2022-08-20T22:17:19.793Z,19.08
2022-08-20T22:19:47.269Z,19.09
2022-08-20T22:22:15.783Z,19.17
2022-08-20T22:24:43.335Z,19.15
2022-08-20T22:27:10.913Z,19.16
2022-08-20T22:29:38.516Z,19.20
2022-08-20T22:32:06.344Z,19.19
2022-08-20T22:34:38.027Z,19.17
2022-08-20T22:37:05.754Z,19.13
2022-08-20T22:39:33.607Z,19.11
2022-08-20T22:42:01.017Z,19.13
2022-08-20T22:44:28.449Z,19.17
2022-08-20T22:47:00.338Z,19.20
2022-08-20T22:49:30.517Z,19.44
2022-08-20T22:51:59.518Z,19.44
2022-08-20T22:54:27.405Z,19.32
2022-08-20T22:56:56.093Z,19.28
2022-08-20T22:59:24.560Z,19.25
2022-08-20T23:01:52.495Z,19.22
2022-08-20T23:04:26.180Z,19.20
2022-08-20T23:06:54.511Z,19.27
2022-08-20T23:09:23.536Z,19.14
2022-08-20T23:11:52.263Z,19.18
2022-08-20T23:14:20.228Z,19.18
2022-08-20T23:16:52.665Z,19.19
2022-08-20T23:19:22.302Z,19.29
2022-08-20T23:21:50.314Z,19.26
2022-08-20T23:24:17.771Z,19.23
2022-08-20T23:26:52.766Z,19.18
2022-08-20T23:29:22.328Z,19.21
2022-08-20T23:31:52.989Z,19.21
2022-08-20T23:34:20.593Z,19.21
2022-08-20T23:36:48.765Z,19.20
2022-08-20T23:39:16.525Z,19.17
2022-08-20T23:41:47.615Z,19.20
2022-08-20T23:44:25.805Z,19.18
2022-08-20T23:46:55.266Z,19.13
2022-08-20T23:49:22.691Z,19.15
2022-08-20T23:51:50.119Z,19.13
2022-08-20T23:54:17.831Z,19.14
2022-08-20T23:56:45.317Z,19.12
2022-08-20T23:59:12.820Z,19.17
